createdAt,value
2023-03-31T00:01:43.815Z,2.10
2023-03-31T00:04:11.192Z,2.38
2023-03-31T00:06:38.810Z,2.30
2023-03-31T00:09:11.791Z,3.47
2023-03-31T00:11:38.995Z,2.30
2023-03-31T00:14:06.544Z,2.53
2023-03-31T00:16:34.564Z,2.60
2023-03-31T00:19:01.223Z,2.35
2023-03-31T00:21:28.849Z,2.65
2023-03-31T00:24:03.697Z,2.30
2023-03-31T00:26:31.032Z,2.53
2023-03-31T00:28:58.329Z,2.55
2023-03-31T00:31:25.605Z,2.60
2023-03-31T00:33:51.962Z,2.25
2023-03-31T00:36:18.776Z,2.30
2023-03-31T00:38:45.132Z,2.15
2023-03-31T00:41:11.810Z,2.20
2023-03-31T00:43:38.579Z,2.20
2023-03-31T00:46:13.514Z,2.20
2023-03-31T00:48:45.683Z,2.30
2023-03-31T00:53:38.395Z,2.20
2023-03-31T00:56:11.552Z,1.95
2023-03-31T00:58:38.693Z,2.10
2023-03-31T01:01:05.119Z,2.17
2023-03-31T01:03:32.399Z,2.03
2023-03-31T01:06:05.623Z,2.10
2023-03-31T01:08:33.564Z,2.17
2023-03-31T01:11:04.400Z,2.30
2023-03-31T01:13:30.933Z,2.33
2023-03-31T01:15:57.746Z,2.35
2023-03-31T01:18:24.728Z,2.38
2023-03-31T01:21:29.133Z,2.10
2023-03-31T01:24:17.480Z,2.40
2023-03-31T01:26:56.296Z,2.45
2023-03-31T01:29:34.741Z,1.85
2023-03-31T01:32:25.869Z,2.28
2023-03-31T01:35:34.124Z,2.58
2023-03-31T01:40:56.903Z,2.17
2023-03-31T01:43:37.260Z,2.70
2023-03-31T01:46:25.841Z,2.25
2023-03-31T01:49:07.193Z,2.90
2023-03-31T01:51:38.876Z,2.70
2023-03-31T01:54:45.524Z,2.80
2023-03-31T01:57:11.789Z,2.80
2023-03-31T01:59:44.391Z,3.28
2023-03-31T02:02:17.506Z,3.10
2023-03-31T02:04:50.393Z,3.13
2023-03-31T02:07:31.542Z,2.80
2023-03-31T02:10:01.673Z,2.90
2023-03-31T02:12:32.422Z,2.63
2023-03-31T02:15:01.385Z,3.00
2023-03-31T02:17:28.484Z,2.88
2023-03-31T02:19:56.939Z,2.40
2023-03-31T02:22:24.698Z,2.28
2023-03-31T02:24:53.445Z,2.58
2023-03-31T02:27:27.350Z,2.17
2023-03-31T02:29:55.215Z,1.98
2023-03-31T02:32:33.748Z,2.35
2023-03-31T02:35:00.731Z,1.90
2023-03-31T02:37:28.771Z,1.85
2023-03-31T02:39:58.789Z,2.67
2023-03-31T02:42:25.367Z,1.73
2023-03-31T02:44:51.823Z,2.22
2023-03-31T02:47:20.664Z,1.92
2023-03-31T02:49:54.345Z,1.75
2023-03-31T02:52:35.537Z,1.90
2023-03-31T02:55:46.725Z,2.13
2023-03-31T02:58:35.605Z,2.10
2023-03-31T03:01:23.857Z,2.40
2023-03-31T03:04:29.987Z,1.80
2023-03-31T03:07:18.010Z,2.22
2023-03-31T03:09:55.666Z,2.15
2023-03-31T03:12:45.912Z,2.33
2023-03-31T03:15:29.755Z,2.10
2023-03-31T03:17:57.095Z,2.22
2023-03-31T03:20:23.857Z,2.25
2023-03-31T03:22:50.204Z,2.15
2023-03-31T03:25:17.488Z,2.22
2023-03-31T03:27:44.137Z,2.55
2023-03-31T03:30:12.897Z,2.53
2023-03-31T03:32:39.773Z,2.50
2023-03-31T03:35:06.755Z,2.95
2023-03-31T03:37:33.233Z,2.72
2023-03-31T03:39:59.706Z,2.80
2023-03-31T03:42:26.068Z,2.38
2023-03-31T03:44:52.420Z,2.65
2023-03-31T03:47:18.791Z,2.53
2023-03-31T03:49:45.177Z,2.28
2023-03-31T03:52:11.519Z,2.13
2023-03-31T03:54:37.835Z,2.10
2023-03-31T03:57:04.227Z,1.90
2023-03-31T03:59:30.551Z,1.92
2023-03-31T04:01:56.909Z,2.20
2023-03-31T04:04:23.381Z,1.95
2023-03-31T04:06:50.265Z,1.60
2023-03-31T04:09:16.654Z,1.83
2023-03-31T04:11:42.990Z,1.90
2023-03-31T04:14:09.389Z,1.90
2023-03-31T04:16:35.781Z,1.77
2023-03-31T04:19:02.171Z,1.88
2023-03-31T04:21:28.482Z,1.63
2023-03-31T04:23:55.146Z,1.85
2023-03-31T04:26:21.459Z,1.80
2023-03-31T04:28:47.798Z,1.67
2023-03-31T04:31:14.987Z,1.80
2023-03-31T04:33:41.547Z,1.80
2023-03-31T04:36:08.727Z,1.90
2023-03-31T04:38:35.348Z,2.10
2023-03-31T04:41:01.865Z,2.00
2023-03-31T04:43:28.189Z,2.42
2023-03-31T04:45:54.581Z,2.42
2023-03-31T04:48:20.969Z,2.80
2023-03-31T04:50:47.316Z,2.45
2023-03-31T04:53:13.663Z,2.78
2023-03-31T04:55:40.040Z,3.03
2023-03-31T04:58:06.424Z,3.33
2023-03-31T05:00:32.791Z,2.70
2023-03-31T05:03:00.024Z,2.70
2023-03-31T05:05:26.485Z,2.65
2023-03-31T05:07:52.864Z,2.20
2023-03-31T05:10:19.253Z,2.20
2023-03-31T05:12:45.592Z,2.20
2023-03-31T05:15:12.904Z,2.38
2023-03-31T05:17:39.314Z,2.30
2023-03-31T05:20:06.675Z,2.60
2023-03-31T05:22:38.584Z,2.40
2023-03-31T05:25:06.976Z,2.20
2023-03-31T05:27:34.012Z,2.45
2023-03-31T05:30:00.395Z,2.97
2023-03-31T05:32:27.508Z,2.75
2023-03-31T05:34:54.454Z,3.47
2023-03-31T05:37:20.899Z,2.97
2023-03-31T05:39:47.292Z,3.30
2023-03-31T05:42:13.650Z,3.40
2023-03-31T05:44:39.998Z,2.97
2023-03-31T05:47:06.381Z,3.38
2023-03-31T05:49:32.765Z,3.05
2023-03-31T05:51:59.232Z,3.00
2023-03-31T05:54:26.896Z,3.45
2023-03-31T05:56:54.117Z,2.78
2023-03-31T05:59:20.557Z,3.13
2023-03-31T06:01:47.193Z,3.03
2023-03-31T06:04:13.667Z,2.47
2023-03-31T06:06:40.115Z,3.00
2023-03-31T06:09:07.112Z,3.53
2023-03-31T06:11:33.461Z,3.00
2023-03-31T06:13:59.777Z,3.03
2023-03-31T06:16:26.234Z,3.10
2023-03-31T06:18:52.651Z,2.33
2023-03-31T06:21:19.085Z,3.17
2023-03-31T06:23:46.125Z,3.33
2023-03-31T06:26:18.955Z,3.00
2023-03-31T06:28:46.557Z,2.85
2023-03-31T06:31:16.603Z,3.08
2023-03-31T06:33:43.992Z,2.90
2023-03-31T06:36:13.314Z,2.97
2023-03-31T06:38:40.374Z,2.90
2023-03-31T06:41:08.605Z,2.40
2023-03-31T06:43:35.213Z,2.35
2023-03-31T06:46:01.659Z,2.53
2023-03-31T06:48:28.073Z,2.10
2023-03-31T06:50:55.328Z,2.10
2023-03-31T06:53:21.838Z,2.33
2023-03-31T06:55:48.480Z,2.28
2023-03-31T06:58:14.815Z,2.47
2023-03-31T07:00:41.186Z,2.35
2023-03-31T07:03:07.649Z,2.25
2023-03-31T07:05:34.632Z,2.17
2023-03-31T07:08:01.385Z,2.20
2023-03-31T07:10:29.989Z,2.17
2023-03-31T07:12:56.745Z,2.05
2023-03-31T07:15:23.595Z,1.60
2023-03-31T07:17:49.982Z,1.73
2023-03-31T07:20:18.356Z,1.70
2023-03-31T07:22:46.209Z,1.60
2023-03-31T07:25:14.854Z,1.58
2023-03-31T07:27:41.738Z,1.30
2023-03-31T07:30:11.060Z,1.60
2023-03-31T07:32:37.409Z,1.20
2023-03-31T07:35:03.838Z,1.27
2023-03-31T07:37:37.145Z,1.10
2023-03-31T07:40:05.142Z,1.45
2023-03-31T07:42:33.010Z,1.52
2023-03-31T07:44:59.466Z,1.27
2023-03-31T07:47:26.180Z,1.10
2023-03-31T07:49:52.461Z,0.90
2023-03-31T07:52:19.136Z,1.40
2023-03-31T07:54:46.317Z,1.10
2023-03-31T07:57:13.168Z,1.10
2023-03-31T07:59:40.280Z,0.90
2023-03-31T08:02:06.840Z,1.02
2023-03-31T08:04:33.422Z,1.13
2023-03-31T08:06:59.962Z,0.90
2023-03-31T08:09:26.312Z,1.10
2023-03-31T08:11:52.661Z,1.00
2023-03-31T08:14:30.291Z,1.00
2023-03-31T08:17:00.710Z,1.00
2023-03-31T08:19:27.665Z,1.15
2023-03-31T08:21:54.253Z,1.00
2023-03-31T08:24:20.742Z,1.50
2023-03-31T08:26:47.157Z,1.10
2023-03-31T08:29:14.158Z,1.10
2023-03-31T08:31:40.750Z,1.55
2023-03-31T08:34:07.338Z,1.17
2023-03-31T08:36:33.693Z,1.48
2023-03-31T08:39:00.042Z,1.00
2023-03-31T08:41:53.136Z,1.17
2023-03-31T08:44:29.618Z,0.88
2023-03-31T08:46:58.622Z,0.85
2023-03-31T08:49:28.789Z,1.00
2023-03-31T08:52:07.556Z,0.73
2023-03-31T08:55:03.257Z,0.90
2023-03-31T08:57:37.947Z,1.00
2023-03-31T09:00:04.926Z,1.10
2023-03-31T09:02:51.570Z,1.00
2023-03-31T09:05:45.989Z,1.10
2023-03-31T09:08:34.082Z,1.40
2023-03-31T09:11:30.252Z,1.45
2023-03-31T09:16:58.338Z,1.52
2023-03-31T09:19:36.310Z,1.50
2023-03-31T09:22:09.367Z,1.40
2023-03-31T09:24:50.215Z,1.65
2023-03-31T09:27:17.175Z,1.30
2023-03-31T09:29:46.440Z,1.40
2023-03-31T09:32:19.025Z,1.58
2023-03-31T09:34:47.587Z,1.30
2023-03-31T09:37:13.954Z,1.52
2023-03-31T09:39:40.805Z,1.85
2023-03-31T09:42:10.460Z,1.50
2023-03-31T09:44:40.390Z,1.48
2023-03-31T09:47:15.565Z,2.45
2023-03-31T09:49:54.132Z,2.10
2023-03-31T09:52:39.686Z,1.80
2023-03-31T09:55:36.507Z,2.60
2023-03-31T09:58:08.211Z,2.35
2023-03-31T10:00:35.144Z,2.78
2023-03-31T10:03:04.398Z,2.22
2023-03-31T10:05:37.480Z,2.55
2023-03-31T10:08:12.948Z,2.50
2023-03-31T10:10:45.286Z,2.20
2023-03-31T10:13:17.031Z,2.40
2023-03-31T10:15:43.495Z,2.30
2023-03-31T10:18:21.010Z,2.20
2023-03-31T10:20:52.418Z,2.60
2023-03-31T10:23:29.039Z,2.50
2023-03-31T10:25:56.008Z,2.53
2023-03-31T10:28:22.812Z,2.20
2023-03-31T10:30:56.027Z,2.42
2023-03-31T10:33:27.935Z,2.42
2023-03-31T10:35:57.595Z,2.15
2023-03-31T10:38:27.794Z,2.47
2023-03-31T10:40:56.674Z,2.53
2023-03-31T10:43:37.289Z,2.88
2023-03-31T10:46:03.779Z,2.00
2023-03-31T10:48:32.803Z,2.25
2023-03-31T10:51:20.670Z,2.70
2023-03-31T10:53:49.493Z,2.22
2023-03-31T10:56:25.002Z,2.25
2023-03-31T10:59:09.700Z,2.22
2023-03-31T11:02:00.727Z,2.30
2023-03-31T11:04:39.703Z,1.98
2023-03-31T11:07:33.338Z,2.53
2023-03-31T11:10:28.660Z,2.53
2023-03-31T11:13:25.837Z,2.10
2023-03-31T11:16:19.758Z,1.77
2023-03-31T11:19:01.195Z,2.28
2023-03-31T11:21:33.457Z,1.67
2023-03-31T11:24:25.478Z,1.95
2023-03-31T11:27:16.394Z,2.08
2023-03-31T11:29:56.267Z,1.83
2023-03-31T11:32:43.847Z,2.03
2023-03-31T11:35:16.226Z,2.10
2023-03-31T11:38:01.391Z,2.00
2023-03-31T11:40:52.440Z,1.58
2023-03-31T11:43:42.985Z,1.80
2023-03-31T11:46:26.490Z,2.05
2023-03-31T11:49:02.979Z,1.40
2023-03-31T11:51:55.524Z,1.52
2023-03-31T11:54:42.144Z,1.40
2023-03-31T11:57:22.008Z,1.65
2023-03-31T11:59:56.520Z,2.17
2023-03-31T12:02:40.450Z,1.58
2023-03-31T12:05:10.211Z,1.52
2023-03-31T12:07:56.745Z,1.65
2023-03-31T12:10:34.142Z,1.48
2023-03-31T12:13:30.908Z,1.52
2023-03-31T12:16:26.978Z,1.60
2023-03-31T12:21:25.065Z,1.48
2023-03-31T12:23:51.535Z,1.98
2023-03-31T12:26:46.293Z,1.35
2023-03-31T12:29:27.209Z,1.80
2023-03-31T12:31:57.446Z,1.58
2023-03-31T12:34:27.843Z,1.70
2023-03-31T12:37:14.980Z,2.53
2023-03-31T12:39:57.886Z,1.75
2023-03-31T12:42:38.393Z,1.67
2023-03-31T12:45:33.121Z,1.42
2023-03-31T12:48:26.118Z,1.58
2023-03-31T12:51:12.190Z,1.50
2023-03-31T12:53:51.816Z,1.58
2023-03-31T12:56:18.191Z,1.83
2023-03-31T12:58:45.569Z,1.80
2023-03-31T13:01:23.081Z,2.03
2023-03-31T13:04:11.194Z,1.40
2023-03-31T13:06:37.514Z,1.50
2023-03-31T13:09:06.382Z,1.40
2023-03-31T13:11:35.422Z,1.48
2023-03-31T13:14:16.268Z,1.70
2023-03-31T13:16:43.387Z,1.40
2023-03-31T13:19:13.294Z,1.55
2023-03-31T13:21:56.920Z,2.00
2023-03-31T13:24:25.022Z,1.60
2023-03-31T13:26:54.095Z,1.55
2023-03-31T13:29:25.057Z,1.60
2023-03-31T13:32:07.772Z,1.50
2023-03-31T13:34:46.634Z,1.88
2023-03-31T13:37:36.938Z,2.50
2023-03-31T13:40:30.774Z,1.50
2023-03-31T13:43:27.842Z,1.60
2023-03-31T13:46:08.080Z,1.58
2023-03-31T13:48:51.343Z,1.60
2023-03-31T13:51:36.524Z,1.55
2023-03-31T13:54:26.777Z,1.95
2023-03-31T13:57:24.248Z,1.73
2023-03-31T14:00:05.694Z,1.77
2023-03-31T14:03:01.353Z,1.80
2023-03-31T14:05:39.272Z,1.80
2023-03-31T14:08:14.122Z,2.25
2023-03-31T14:10:42.758Z,1.80
2023-03-31T14:13:17.033Z,1.75
2023-03-31T14:15:58.510Z,1.55
2023-03-31T14:18:28.275Z,1.40
2023-03-31T14:21:22.461Z,1.20
2023-03-31T14:23:57.940Z,1.30
2023-03-31T14:26:44.199Z,1.20
2023-03-31T14:29:24.275Z,1.52
2023-03-31T14:32:02.405Z,1.70
2023-03-31T14:34:53.062Z,1.50
2023-03-31T14:37:20.421Z,1.30
2023-03-31T14:39:50.274Z,1.33
2023-03-31T14:42:19.580Z,1.75
2023-03-31T14:44:48.255Z,1.08
2023-03-31T14:47:22.867Z,1.35
2023-03-31T14:50:07.056Z,1.05
2023-03-31T14:52:34.007Z,1.30
2023-03-31T14:55:02.781Z,1.30
2023-03-31T14:57:36.065Z,1.20
2023-03-31T15:00:06.514Z,1.35
2023-03-31T15:02:36.177Z,1.48
2023-03-31T15:05:08.633Z,1.85
2023-03-31T15:07:36.654Z,1.35
2023-03-31T15:10:04.975Z,1.30
2023-03-31T15:12:31.499Z,1.52
2023-03-31T15:15:05.483Z,1.45
2023-03-31T15:17:37.754Z,1.17
2023-03-31T15:20:25.178Z,1.20
2023-03-31T15:22:51.583Z,1.40
2023-03-31T15:25:18.092Z,1.42
2023-03-31T15:28:06.576Z,1.38
2023-03-31T15:30:35.002Z,1.20
2023-03-31T15:33:15.675Z,1.23
2023-03-31T15:35:45.492Z,1.42
2023-03-31T15:38:15.022Z,1.40
2023-03-31T15:40:42.595Z,1.27
2023-03-31T15:43:41.404Z,1.20
2023-03-31T15:46:11.240Z,1.10
2023-03-31T15:48:49.701Z,0.93
2023-03-31T15:51:25.482Z,1.27
2023-03-31T15:53:53.936Z,1.55
2023-03-31T15:56:43.796Z,1.10
2023-03-31T15:59:25.143Z,1.17
2023-03-31T16:01:56.029Z,1.10
2023-03-31T16:04:23.794Z,1.58
2023-03-31T16:06:53.214Z,1.10
2023-03-31T16:09:23.735Z,1.10
2023-03-31T16:11:51.153Z,1.60
2023-03-31T16:14:29.137Z,1.02
2023-03-31T16:19:33.120Z,1.23
2023-03-31T16:22:01.016Z,1.23
2023-03-31T16:24:35.642Z,1.40
2023-03-31T16:27:04.435Z,1.35
2023-03-31T16:29:30.931Z,1.30
2023-03-31T16:32:13.802Z,1.45
2023-03-31T16:34:58.350Z,1.40
2023-03-31T16:37:25.743Z,1.42
2023-03-31T16:39:52.370Z,1.30
2023-03-31T16:42:20.045Z,1.20
2023-03-31T16:44:52.922Z,1.27
2023-03-31T16:47:35.132Z,1.30
2023-03-31T16:50:02.472Z,1.40
2023-03-31T16:52:28.921Z,1.13
2023-03-31T16:54:55.334Z,1.50
2023-03-31T16:57:21.732Z,1.30
2023-03-31T16:59:48.150Z,1.08
2023-03-31T17:02:14.538Z,1.20
2023-03-31T17:04:40.902Z,1.15
2023-03-31T17:07:07.296Z,1.05
2023-03-31T17:09:33.672Z,0.90
2023-03-31T17:12:00.092Z,1.10
2023-03-31T17:14:26.441Z,1.00
2023-03-31T17:16:52.850Z,0.90
2023-03-31T17:19:19.204Z,0.77
2023-03-31T17:21:45.576Z,1.10
2023-03-31T17:24:12.018Z,1.02
2023-03-31T17:26:38.417Z,1.00
2023-03-31T17:29:04.884Z,1.13
2023-03-31T17:31:31.416Z,1.52
2023-03-31T17:33:57.998Z,1.30
2023-03-31T17:36:24.446Z,1.20
2023-03-31T17:38:50.789Z,1.00
2023-03-31T17:41:17.197Z,1.20
2023-03-31T17:43:47.986Z,1.05
2023-03-31T17:46:14.628Z,1.00
2023-03-31T17:48:41.886Z,1.00
2023-03-31T17:51:11.211Z,1.17
2023-03-31T17:53:39.091Z,0.90
2023-03-31T17:56:05.892Z,1.20
2023-03-31T17:58:33.011Z,1.20
2023-03-31T18:00:59.829Z,1.17
2023-03-31T18:03:29.601Z,1.20
2023-03-31T18:05:55.970Z,1.20
2023-03-31T18:08:22.419Z,1.10
2023-03-31T18:10:48.891Z,1.45
2023-03-31T18:13:15.276Z,1.27
2023-03-31T18:15:50.552Z,1.30
2023-03-31T18:18:16.936Z,1.30
2023-03-31T18:20:43.338Z,1.30
2023-03-31T18:23:09.768Z,1.42
2023-03-31T18:25:36.439Z,1.48
2023-03-31T18:28:03.194Z,1.60
2023-03-31T18:30:29.776Z,1.75
2023-03-31T18:32:56.269Z,1.60
2023-03-31T18:35:22.828Z,1.90
2023-03-31T18:37:49.224Z,1.50
2023-03-31T18:40:15.684Z,2.00
2023-03-31T18:42:43.127Z,1.75
2023-03-31T18:45:09.699Z,1.70
2023-03-31T18:47:36.091Z,1.67
2023-03-31T18:50:02.814Z,1.85
2023-03-31T18:52:29.197Z,1.95
2023-03-31T18:54:55.599Z,1.70
2023-03-31T18:57:22.159Z,1.90
2023-03-31T18:59:48.650Z,2.30
2023-03-31T19:02:16.303Z,2.30
2023-03-31T19:04:42.721Z,2.60
2023-03-31T19:07:09.169Z,2.83
2023-03-31T19:09:35.573Z,2.67
2023-03-31T19:12:01.958Z,2.50
2023-03-31T19:14:28.424Z,2.65
2023-03-31T19:16:54.880Z,2.50
2023-03-31T19:19:21.715Z,2.80
2023-03-31T19:21:48.176Z,2.53
2023-03-31T19:24:14.652Z,2.80
2023-03-31T19:26:42.110Z,2.53
2023-03-31T19:29:08.546Z,3.03
2023-03-31T19:31:35.056Z,2.60
2023-03-31T19:34:01.424Z,3.20
2023-03-31T19:36:27.792Z,3.38
2023-03-31T19:38:54.159Z,3.20
2023-03-31T19:41:21.731Z,3.10
2023-03-31T19:43:48.128Z,2.97
2023-03-31T19:46:14.853Z,3.42
2023-03-31T19:48:41.425Z,3.38
2023-03-31T19:51:07.848Z,3.13
2023-03-31T19:53:37.564Z,3.20
2023-03-31T19:56:06.817Z,2.75
2023-03-31T19:58:33.901Z,3.00
2023-03-31T20:01:00.293Z,3.10
2023-03-31T20:03:27.093Z,3.38
2023-03-31T20:06:03.925Z,3.80
2023-03-31T20:08:30.422Z,3.60
2023-03-31T20:11:08.404Z,3.60
2023-03-31T20:13:34.967Z,3.60
2023-03-31T20:16:13.577Z,3.38
2023-03-31T20:18:41.173Z,3.63
2023-03-31T20:21:13.426Z,3.65
2023-03-31T20:23:41.034Z,3.50
2023-03-31T20:26:10.446Z,3.88
2023-03-31T20:28:38.192Z,4.07
2023-03-31T20:31:09.588Z,3.45
2023-03-31T20:33:36.399Z,3.97
2023-03-31T20:36:08.730Z,3.78
2023-03-31T20:38:39.813Z,3.20
2023-03-31T20:41:07.118Z,3.10
2023-03-31T20:43:34.271Z,3.15
2023-03-31T20:46:00.737Z,2.80
2023-03-31T20:48:27.149Z,3.05
2023-03-31T20:50:53.513Z,3.28
2023-03-31T20:53:19.911Z,3.20
2023-03-31T20:55:46.286Z,3.22
2023-03-31T20:58:12.666Z,3.38
2023-03-31T21:00:39.180Z,3.00
2023-03-31T21:03:05.752Z,2.80
2023-03-31T21:05:32.632Z,3.00
2023-03-31T21:07:59.254Z,2.38
2023-03-31T21:10:25.692Z,2.83
2023-03-31T21:12:52.043Z,3.05
2023-03-31T21:15:18.457Z,2.38
2023-03-31T21:17:44.889Z,2.50
2023-03-31T21:20:11.456Z,2.47
2023-03-31T21:22:37.833Z,2.72
2023-03-31T21:25:04.622Z,2.60
2023-03-31T21:27:30.962Z,2.40
2023-03-31T21:29:57.343Z,2.40
2023-03-31T21:32:23.845Z,2.40
2023-03-31T21:34:50.411Z,2.58
2023-03-31T21:37:16.829Z,2.50
2023-03-31T21:39:43.215Z,2.60
2023-03-31T21:42:09.556Z,2.20
2023-03-31T21:44:35.921Z,2.42
2023-03-31T21:47:02.355Z,2.40
2023-03-31T21:49:28.776Z,2.42
2023-03-31T21:51:55.160Z,2.20
2023-03-31T21:54:21.522Z,2.22
2023-03-31T21:56:47.858Z,2.40
2023-03-31T21:59:14.246Z,2.22
2023-03-31T22:01:40.759Z,2.05
2023-03-31T22:04:07.181Z,2.40
2023-03-31T22:06:33.549Z,2.33
2023-03-31T22:08:59.893Z,2.53
2023-03-31T22:11:26.345Z,2.33
2023-03-31T22:13:52.749Z,2.30
2023-03-31T22:16:21.660Z,2.55
2023-03-31T22:18:48.628Z,2.40
2023-03-31T22:21:26.031Z,2.10
2023-03-31T22:23:55.672Z,3.08
2023-03-31T22:26:22.940Z,2.20
2023-03-31T22:28:49.859Z,2.40
2023-03-31T22:31:16.332Z,2.40
2023-03-31T22:33:42.790Z,2.60
2023-03-31T22:36:09.461Z,2.50
2023-03-31T22:38:35.922Z,2.63
2023-03-31T22:41:02.592Z,2.63
2023-03-31T22:43:28.999Z,2.47
2023-03-31T22:45:55.481Z,2.20
2023-03-31T22:48:21.906Z,2.80
2023-03-31T22:50:48.326Z,2.35
2023-03-31T22:53:14.714Z,2.45
2023-03-31T22:55:42.865Z,2.30
2023-03-31T22:58:09.911Z,2.28
2023-03-31T23:00:36.362Z,2.38
2023-03-31T23:03:03.505Z,2.30
2023-03-31T23:05:30.427Z,2.17
2023-03-31T23:07:57.160Z,2.38
2023-03-31T23:10:23.674Z,1.95
2023-03-31T23:12:50.071Z,2.20
2023-03-31T23:15:16.466Z,1.90
2023-03-31T23:17:42.848Z,2.10
2023-03-31T23:20:09.866Z,2.15
2023-03-31T23:22:36.333Z,2.00
2023-03-31T23:25:02.781Z,2.10
2023-03-31T23:27:29.208Z,1.85
2023-03-31T23:29:55.676Z,1.80
2023-03-31T23:32:22.091Z,2.10
2023-03-31T23:34:48.488Z,1.98
2023-03-31T23:37:15.499Z,2.20
2023-03-31T23:39:41.885Z,1.90
2023-03-31T23:42:09.747Z,2.03
2023-03-31T23:44:36.248Z,2.10
2023-03-31T23:47:03.016Z,1.75
2023-03-31T23:49:29.533Z,1.92
2023-03-31T23:51:56.479Z,2.38
2023-03-31T23:54:23.143Z,2.00
2023-03-31T23:56:49.777Z,1.67
2023-03-31T23:59:16.293Z,1.80
